Hickory Regional Airport
KHKY : now visible

Airfield :











YOU CAN JOIN US ON...

 
LOGIN :

Register | Disclaimer

   EN    FR    IT 

 









Legend :    VFR   Marginal VFR   IFR   Intensive IFR   Very Intensive IFR
Visi :
Ceiling :
>= 8 km
>= 3000ft
5 to 8 km
1000 to 3000 ft
1500m to 5 km
500 to 1000 ft
800 to 1500m
200 to 500 ft
< 800m
< 200 ft
Symbols :   Thunderstorms  Fog  Heavy snow  Heavy precipitations  Wind > 20 kt






- Airport Elevation : 1190 ft
- IATA code : HKY


KHKY - Hickory Regional

CURRENT METAR :
  • 291453Z VRB05KT 10SM BKN110 04/M02 A3010 RMK AO2 SLP189 T00391017 51014

EXPIRED METARs :
  • 291353Z 07005KT 10SM OVC120 02/M01 A3009 RMK AO2 SLP185 T00171011
  • 291253Z 00000KT 9SM FEW120 M01/M02 A3008 RMK AO2 SLP181 T10061022
  • 291153Z 02003KT 10SM CLR M01/M03 A3006 RMK AO2 SLP175 T10111028 10022 21011 53012 $

TAF KHKY
Valid from the 29 at 12:00 until the 30 at 12:00 UTC


291132Z 2912/3012 VRB03KT P6SM BKN250
FM300000 01003KT P6SM OVC050
FM300400 02003KT 4SM BR VCSH OVC015



MET'MAP, your aeronautical weather chart ! - Copyright ORBIFLY December 2007 - Disclaimer

ORBIFLY MET'MAP TEAM :

Programming & Development : Alexandra Zaïnal
Concept & original design : Baudouin d'Aumeries
Assistance for programming : Marc-Olivier Méhu
Technical & hardware support : Manuel Goepfert

Contact : metmap@orbifly.com




SOURCES & CREDITS :

   NOAA       Earth
Advisory